createdAt,value
2018-03-30T00:01:58.271Z,2.70
2018-03-30T00:04:25.901Z,2.60
2018-03-30T00:06:53.503Z,2.50
2018-03-30T00:09:32.909Z,2.60
2018-03-30T00:12:01.192Z,2.40
2018-03-30T00:14:28.927Z,2.40
2018-03-30T00:16:56.444Z,2.40
2018-03-30T00:19:23.957Z,2.40
2018-03-30T00:21:51.524Z,2.40
2018-03-30T00:24:19.079Z,2.40
2018-03-30T00:26:46.717Z,2.40
2018-03-30T00:29:15.005Z,2.30
2018-03-30T00:31:43.302Z,2.30
2018-03-30T00:34:10.830Z,2.30
2018-03-30T00:36:38.348Z,2.30
2018-03-30T00:39:05.880Z,2.30
2018-03-30T00:41:33.513Z,2.30
2018-03-30T00:44:01.784Z,2.30
2018-03-30T00:46:30.159Z,2.20
2018-03-30T00:48:57.679Z,2.20
2018-03-30T00:51:25.223Z,2.20
2018-03-30T00:53:52.754Z,2.10
2018-03-30T00:56:20.270Z,2.10
2018-03-30T00:58:47.902Z,2.10
2018-03-30T01:01:15.430Z,2.20
2018-03-30T01:03:42.959Z,2.20
2018-03-30T01:06:11.251Z,2.10
2018-03-30T01:08:38.766Z,2.10
2018-03-30T01:11:10.111Z,2.10
2018-03-30T01:13:37.659Z,2.10
2018-03-30T01:18:49.043Z,2.00
2018-03-30T01:21:23.247Z,2.00
2018-03-30T01:23:50.783Z,2.00
2018-03-30T01:26:19.082Z,2.00
2018-03-30T01:28:46.667Z,1.90
2018-03-30T01:31:14.211Z,2.00
2018-03-30T01:33:41.736Z,2.00
2018-03-30T01:36:09.256Z,2.00
2018-03-30T01:38:36.779Z,1.90
2018-03-30T01:41:04.365Z,2.00
2018-03-30T01:43:31.878Z,1.90
2018-03-30T01:46:00.163Z,1.90
2018-03-30T01:48:28.466Z,1.90
2018-03-30T01:50:56.061Z,1.80
2018-03-30T01:53:23.619Z,1.80
2018-03-30T01:55:51.214Z,1.80
2018-03-30T01:58:19.490Z,1.80
2018-03-30T02:00:47.789Z,1.70
2018-03-30T02:03:16.439Z,1.70
2018-03-30T02:05:44.717Z,1.70
2018-03-30T02:08:13.005Z,1.70
2018-03-30T02:10:41.287Z,1.70
2018-03-30T02:13:08.800Z,1.70
2018-03-30T02:15:36.386Z,1.70
2018-03-30T02:18:04.652Z,1.70
2018-03-30T02:20:32.942Z,1.70
2018-03-30T02:23:01.251Z,1.70
2018-03-30T02:25:28.768Z,1.60
2018-03-30T02:27:56.347Z,1.60
2018-03-30T02:30:24.593Z,1.60
2018-03-30T02:32:52.889Z,1.60
2018-03-30T02:35:21.190Z,1.60
2018-03-30T02:37:48.721Z,1.50
2018-03-30T02:40:17.109Z,1.50
2018-03-30T02:42:45.474Z,1.50
2018-03-30T02:45:13.028Z,1.50
2018-03-30T02:47:40.554Z,1.60
2018-03-30T02:50:08.657Z,1.60
2018-03-30T02:52:37.895Z,1.60
2018-03-30T02:55:05.402Z,1.50
2018-03-30T02:57:32.990Z,1.50
2018-03-30T03:00:02.203Z,1.50
2018-03-30T03:02:30.430Z,1.50
2018-03-30T03:04:57.938Z,1.50
2018-03-30T03:07:25.467Z,1.50
2018-03-30T03:09:53.742Z,1.50
2018-03-30T03:12:22.019Z,1.40
2018-03-30T03:14:50.314Z,1.50
2018-03-30T03:17:17.833Z,1.40
2018-03-30T03:19:45.352Z,1.50
2018-03-30T03:22:12.869Z,1.50
2018-03-30T03:24:41.148Z,1.50
2018-03-30T03:27:08.683Z,1.50
2018-03-30T03:29:36.272Z,1.50
2018-03-30T03:32:03.786Z,1.40
2018-03-30T03:34:31.319Z,1.40
2018-03-30T03:36:58.870Z,1.40
2018-03-30T03:39:26.383Z,1.50
2018-03-30T03:41:53.932Z,1.50
2018-03-30T03:44:21.653Z,1.50
2018-03-30T03:46:49.164Z,1.50
2018-03-30T03:49:16.691Z,1.50
2018-03-30T03:51:44.206Z,1.50
2018-03-30T03:54:11.727Z,1.50
2018-03-30T03:56:39.274Z,1.50
2018-03-30T03:59:06.755Z,1.40
2018-03-30T04:01:34.305Z,1.40
2018-03-30T04:04:01.812Z,1.40
2018-03-30T04:06:29.332Z,1.40
2018-03-30T04:08:56.889Z,1.40
2018-03-30T04:11:25.175Z,1.30
2018-03-30T04:13:53.460Z,1.40
2018-03-30T04:16:20.989Z,1.30
2018-03-30T04:18:48.519Z,1.30
2018-03-30T04:21:16.092Z,1.30
2018-03-30T04:23:43.650Z,1.30
2018-03-30T04:26:11.168Z,1.30
2018-03-30T04:28:38.675Z,1.30
2018-03-30T04:31:06.199Z,1.20
2018-03-30T04:33:33.709Z,1.30
2018-03-30T04:36:01.231Z,1.30
2018-03-30T04:38:28.828Z,1.30
2018-03-30T04:40:56.367Z,1.20
2018-03-30T04:43:23.900Z,1.30
2018-03-30T04:45:51.433Z,1.20
2018-03-30T04:48:19.048Z,1.20
2018-03-30T04:50:47.351Z,1.20
2018-03-30T04:53:14.875Z,1.20
2018-03-30T04:55:42.396Z,1.30
2018-03-30T04:58:09.906Z,1.20
2018-03-30T05:00:37.420Z,1.30
2018-03-30T05:03:04.934Z,1.30
2018-03-30T05:05:33.242Z,1.40
2018-03-30T05:08:01.532Z,1.40
2018-03-30T05:10:29.060Z,1.40
2018-03-30T05:12:56.579Z,1.40
2018-03-30T05:15:24.105Z,1.30
2018-03-30T05:17:51.641Z,1.40
2018-03-30T05:20:19.175Z,1.40
2018-03-30T05:22:47.451Z,1.40
2018-03-30T05:25:15.729Z,1.40
2018-03-30T05:27:44.006Z,1.40
2018-03-30T05:30:12.308Z,1.30
2018-03-30T05:32:39.812Z,1.30
2018-03-30T05:35:07.334Z,1.40
2018-03-30T05:37:34.867Z,1.40
2018-03-30T05:40:03.135Z,1.40
2018-03-30T05:42:31.423Z,1.40
2018-03-30T05:44:58.992Z,1.40
2018-03-30T05:47:26.526Z,1.40
2018-03-30T05:49:54.810Z,1.40
2018-03-30T05:52:22.337Z,1.40
2018-03-30T05:54:49.998Z,1.30
2018-03-30T05:57:19.153Z,1.40
2018-03-30T05:59:46.672Z,1.40
2018-03-30T06:02:14.983Z,1.40
2018-03-30T06:04:42.503Z,1.40
2018-03-30T06:07:10.026Z,1.40
2018-03-30T06:09:37.536Z,1.40
2018-03-30T06:12:05.804Z,1.50
2018-03-30T06:14:34.079Z,1.40
2018-03-30T06:17:02.693Z,1.50
2018-03-30T06:19:30.218Z,1.40
2018-03-30T06:21:58.526Z,1.50
2018-03-30T06:24:26.060Z,1.50
2018-03-30T06:26:53.610Z,1.50
2018-03-30T06:29:21.892Z,1.50
2018-03-30T06:31:50.170Z,1.60
2018-03-30T06:34:18.460Z,1.60
2018-03-30T06:36:45.973Z,1.60
2018-03-30T06:39:13.509Z,1.60
2018-03-30T06:41:41.152Z,1.60
2018-03-30T06:44:08.729Z,1.60
2018-03-30T06:46:36.239Z,1.60
2018-03-30T06:49:03.794Z,1.60
2018-03-30T06:51:32.088Z,1.70
2018-03-30T06:53:59.619Z,1.60
2018-03-30T06:56:27.896Z,1.70
2018-03-30T06:58:56.188Z,1.70
2018-03-30T07:01:24.473Z,1.70
2018-03-30T07:03:52.033Z,1.70
2018-03-30T07:06:19.542Z,1.80
2018-03-30T07:08:47.053Z,1.80
2018-03-30T07:11:14.568Z,1.90
2018-03-30T07:13:42.887Z,2.00
2018-03-30T07:16:11.237Z,2.00
2018-03-30T07:18:39.143Z,2.00
2018-03-30T07:21:06.890Z,2.00
2018-03-30T07:23:34.400Z,2.10
2018-03-30T07:26:01.936Z,2.10
2018-03-30T07:28:29.447Z,2.10
2018-03-30T07:30:57.057Z,2.20
2018-03-30T07:33:24.667Z,2.20
2018-03-30T07:35:52.989Z,2.20
2018-03-30T07:38:20.525Z,2.20
2018-03-30T07:40:48.028Z,2.30
2018-03-30T07:43:15.538Z,2.30
2018-03-30T07:45:43.085Z,2.40
2018-03-30T07:48:11.384Z,2.40
2018-03-30T07:50:38.916Z,2.40
2018-03-30T07:53:06.461Z,2.50
2018-03-30T07:55:33.978Z,2.40
2018-03-30T07:58:01.486Z,2.50
2018-03-30T08:00:29.030Z,2.60
2018-03-30T08:02:56.534Z,2.60
2018-03-30T08:05:24.044Z,2.60
2018-03-30T08:07:53.087Z,2.60
2018-03-30T08:10:20.625Z,2.60
2018-03-30T08:12:48.144Z,2.60
2018-03-30T08:15:16.070Z,2.60
2018-03-30T08:17:43.610Z,2.70
2018-03-30T08:20:11.897Z,2.70
2018-03-30T08:22:39.406Z,2.70
2018-03-30T08:25:07.100Z,2.70
2018-03-30T08:27:34.636Z,2.80
2018-03-30T08:30:02.156Z,2.80
2018-03-30T08:32:29.771Z,2.80
2018-03-30T08:34:58.151Z,2.80
2018-03-30T08:37:25.712Z,2.80
2018-03-30T08:39:53.973Z,2.90
2018-03-30T08:42:21.482Z,2.80
2018-03-30T08:44:49.000Z,2.90
2018-03-30T08:47:16.579Z,3.00
2018-03-30T08:49:44.088Z,3.00
2018-03-30T08:52:14.273Z,3.10
2018-03-30T08:54:41.787Z,3.10
2018-03-30T08:57:10.066Z,3.20
2018-03-30T08:59:37.566Z,3.20
2018-03-30T09:02:05.093Z,3.20
2018-03-30T09:04:33.367Z,3.30
2018-03-30T09:07:01.677Z,3.40
2018-03-30T09:09:29.193Z,3.40
2018-03-30T09:11:56.692Z,3.40
2018-03-30T09:14:24.207Z,3.50
2018-03-30T09:16:52.495Z,3.60
2018-03-30T09:19:20.773Z,3.70
2018-03-30T09:21:49.055Z,3.90
2018-03-30T09:24:17.328Z,4.00
2018-03-30T09:26:45.602Z,4.10
2018-03-30T09:29:13.870Z,4.10
2018-03-30T09:31:42.179Z,4.10
2018-03-30T09:34:09.747Z,4.10
2018-03-30T09:36:37.260Z,4.20
2018-03-30T09:39:05.536Z,4.40
2018-03-30T09:41:33.828Z,4.50
2018-03-30T09:44:02.136Z,4.60
2018-03-30T09:46:29.695Z,4.60
2018-03-30T09:48:57.227Z,4.60
2018-03-30T09:51:24.767Z,4.70
2018-03-30T09:53:52.292Z,4.80
2018-03-30T09:56:19.828Z,4.90
2018-03-30T09:58:47.385Z,5.00
2018-03-30T10:01:16.680Z,5.00
2018-03-30T10:03:51.624Z,5.10
2018-03-30T10:06:19.146Z,5.30
2018-03-30T10:08:46.669Z,5.60
2018-03-30T10:11:14.183Z,5.60
2018-03-30T10:13:41.715Z,5.60
2018-03-30T10:16:09.231Z,5.60
2018-03-30T10:18:36.750Z,5.80
2018-03-30T10:21:04.275Z,5.80
2018-03-30T10:23:32.565Z,5.90
2018-03-30T10:26:00.847Z,6.00
2018-03-30T10:28:28.371Z,6.00
2018-03-30T10:30:55.870Z,6.10
2018-03-30T10:33:23.375Z,6.10
2018-03-30T10:35:50.882Z,6.20
2018-03-30T10:38:18.416Z,6.20
2018-03-30T10:40:45.918Z,6.30
2018-03-30T10:43:13.445Z,6.30
2018-03-30T10:45:41.730Z,6.40
2018-03-30T10:48:09.248Z,6.30
2018-03-30T10:50:36.777Z,6.40
2018-03-30T10:53:04.285Z,6.50
2018-03-30T10:55:32.582Z,6.60
2018-03-30T10:58:00.094Z,6.60
2018-03-30T11:00:27.672Z,6.70
2018-03-30T11:02:55.184Z,6.80
2018-03-30T11:05:22.768Z,6.80
2018-03-30T11:07:50.256Z,6.90
2018-03-30T11:10:18.529Z,7.10
2018-03-30T11:12:46.808Z,7.20
2018-03-30T11:15:15.092Z,7.20
2018-03-30T11:17:43.371Z,7.30
2018-03-30T11:20:11.631Z,7.40
2018-03-30T11:22:39.904Z,7.40
2018-03-30T11:25:09.983Z,7.60
2018-03-30T11:27:37.630Z,7.60
2018-03-30T11:30:05.150Z,7.70
2018-03-30T11:32:33.426Z,8.00
2018-03-30T11:35:01.701Z,8.10
2018-03-30T11:37:30.085Z,8.30
2018-03-30T11:39:58.434Z,8.40
2018-03-30T11:42:25.947Z,8.40
2018-03-30T11:44:53.456Z,8.40
2018-03-30T11:47:21.852Z,8.40
2018-03-30T11:49:50.122Z,8.60
2018-03-30T11:52:18.745Z,8.80
2018-03-30T11:54:46.260Z,8.80
2018-03-30T11:57:13.770Z,8.90
2018-03-30T11:59:41.288Z,9.10
2018-03-30T12:02:08.801Z,9.20
2018-03-30T12:04:36.334Z,9.50
2018-03-30T12:07:03.860Z,9.70
2018-03-30T12:09:31.391Z,9.80
2018-03-30T12:11:58.930Z,9.80
2018-03-30T12:14:26.551Z,10.00
2018-03-30T12:16:54.103Z,10.20
2018-03-30T12:19:22.402Z,10.40
2018-03-30T12:21:49.920Z,10.40
2018-03-30T12:24:18.227Z,10.70
2018-03-30T12:26:45.757Z,10.70
2018-03-30T12:29:13.353Z,10.90
2018-03-30T12:31:40.900Z,11.10
2018-03-30T12:34:08.442Z,11.40
2018-03-30T12:36:35.969Z,11.50
2018-03-30T12:39:03.489Z,11.50
2018-03-30T12:41:30.994Z,11.60
2018-03-30T12:44:00.009Z,11.80
2018-03-30T12:46:27.568Z,11.80
2018-03-30T12:48:55.112Z,12.00
2018-03-30T12:51:22.659Z,12.30
2018-03-30T12:53:50.965Z,12.40
2018-03-30T12:56:18.488Z,12.30
2018-03-30T12:58:46.031Z,12.50
2018-03-30T13:01:13.559Z,12.80
2018-03-30T13:03:41.124Z,13.20
2018-03-30T13:06:09.701Z,13.60
2018-03-30T13:08:37.964Z,14.50
2018-03-30T13:11:05.480Z,14.40
2018-03-30T13:13:33.001Z,15.30
2018-03-30T13:16:01.288Z,15.90
2018-03-30T13:18:29.012Z,15.90
2018-03-30T13:20:56.540Z,16.10
2018-03-30T13:23:24.059Z,15.80
2018-03-30T13:25:51.702Z,15.70
2018-03-30T13:28:20.006Z,16.50
2018-03-30T13:30:47.520Z,16.50
2018-03-30T13:33:15.055Z,16.60
2018-03-30T13:35:42.621Z,16.70
2018-03-30T13:38:10.141Z,17.30
2018-03-30T13:40:37.675Z,17.70
2018-03-30T13:43:05.964Z,18.40
2018-03-30T13:45:33.512Z,18.40
2018-03-30T13:48:01.027Z,18.50
2018-03-30T13:50:44.210Z,18.60
2018-03-30T13:53:12.633Z,18.70
2018-03-30T13:55:41.299Z,18.80
2018-03-30T13:58:10.620Z,18.90
2018-03-30T14:00:42.702Z,18.90
2018-03-30T14:03:10.236Z,19.10
2018-03-30T14:05:43.454Z,19.40
2018-03-30T14:08:15.260Z,19.10
2018-03-30T14:10:46.763Z,19.10
2018-03-30T14:13:14.299Z,19.20
2018-03-30T14:18:43.700Z,18.70
2018-03-30T14:21:12.141Z,18.50
2018-03-30T14:23:40.435Z,17.10
2018-03-30T14:26:15.648Z,17.00
2018-03-30T14:28:46.579Z,16.00
2018-03-30T14:31:17.576Z,15.90
2018-03-30T14:33:45.305Z,15.90
2018-03-30T14:36:21.234Z,15.40
2018-03-30T14:38:56.146Z,15.00
2018-03-30T14:41:23.676Z,15.00
2018-03-30T14:43:53.687Z,15.30
2018-03-30T14:46:42.667Z,15.30
2018-03-30T14:49:13.813Z,15.80
2018-03-30T14:51:44.889Z,16.20
2018-03-30T14:54:17.876Z,16.10
2018-03-30T14:56:45.421Z,16.40
2018-03-30T14:59:16.391Z,16.80
2018-03-30T15:01:53.880Z,17.10
2018-03-30T15:04:32.115Z,17.40
2018-03-30T15:07:02.582Z,17.40
2018-03-30T15:09:36.000Z,17.40
2018-03-30T15:12:12.064Z,17.40
2018-03-30T15:14:40.401Z,17.30
2018-03-30T15:17:32.697Z,17.50
2018-03-30T15:20:04.663Z,17.60
2018-03-30T15:22:51.758Z,17.50
2018-03-30T15:25:24.801Z,16.70
2018-03-30T15:27:55.087Z,16.60
2018-03-30T15:30:36.294Z,16.20
2018-03-30T15:33:06.635Z,16.00
2018-03-30T15:35:34.181Z,15.90
2018-03-30T15:38:02.475Z,16.20
2018-03-30T15:40:30.717Z,16.20
2018-03-30T15:42:59.853Z,16.30
2018-03-30T15:45:44.938Z,16.60
2018-03-30T15:48:12.490Z,16.60
2018-03-30T15:50:40.798Z,15.90
2018-03-30T15:53:23.073Z,15.90
2018-03-30T15:55:51.371Z,15.50
2018-03-30T15:58:18.903Z,15.50
2018-03-30T16:00:47.218Z,15.00
2018-03-30T16:03:14.774Z,15.00
2018-03-30T16:05:42.292Z,14.80
2018-03-30T16:08:09.820Z,14.60
2018-03-30T16:10:41.981Z,14.50
2018-03-30T16:13:09.509Z,14.40
2018-03-30T16:15:37.010Z,14.30
2018-03-30T16:18:04.560Z,14.30
2018-03-30T16:20:31.591Z,14.30
2018-03-30T16:22:58.638Z,14.20
2018-03-30T16:25:25.660Z,14.10
2018-03-30T16:27:52.707Z,14.00
2018-03-30T16:30:19.740Z,13.80
2018-03-30T16:32:47.526Z,13.60
2018-03-30T16:35:14.552Z,13.60
2018-03-30T16:37:41.564Z,13.40
2018-03-30T16:40:08.578Z,13.40
2018-03-30T16:42:35.636Z,13.30
2018-03-30T16:45:02.652Z,13.20
2018-03-30T16:47:29.684Z,13.10
2018-03-30T16:49:57.466Z,12.90
2018-03-30T16:52:24.567Z,12.90
2018-03-30T16:54:51.613Z,12.80
2018-03-30T16:57:18.671Z,12.70
2018-03-30T16:59:45.711Z,12.50
2018-03-30T17:02:12.723Z,12.30
2018-03-30T17:04:39.762Z,12.20
2018-03-30T17:07:06.811Z,12.20
2018-03-30T17:09:33.851Z,12.10
2018-03-30T17:12:00.893Z,12.00
2018-03-30T17:14:27.947Z,11.90
2018-03-30T17:16:54.992Z,11.70
2018-03-30T17:19:22.013Z,11.60
2018-03-30T17:21:49.798Z,11.50
2018-03-30T17:24:16.855Z,11.40
2018-03-30T17:26:43.902Z,11.40
2018-03-30T17:29:11.020Z,11.30
2018-03-30T17:31:38.859Z,11.10
2018-03-30T17:34:05.896Z,11.10
2018-03-30T17:36:33.010Z,11.10
2018-03-30T17:39:00.085Z,11.00
2018-03-30T17:41:27.884Z,10.90
2018-03-30T17:43:55.668Z,10.80
2018-03-30T17:46:22.708Z,10.80
2018-03-30T17:48:50.514Z,10.60
2018-03-30T17:51:17.559Z,10.60
2018-03-30T17:53:44.658Z,10.50
2018-03-30T17:56:12.577Z,10.40
2018-03-30T17:58:39.649Z,10.40
2018-03-30T18:01:06.703Z,10.40
2018-03-30T18:03:33.847Z,10.30
2018-03-30T18:06:00.895Z,10.30
2018-03-30T18:08:27.980Z,10.30
2018-03-30T18:10:55.010Z,10.30
2018-03-30T18:13:22.193Z,10.20
2018-03-30T18:15:49.221Z,10.10
2018-03-30T18:18:16.249Z,9.90
2018-03-30T18:20:44.070Z,9.90
2018-03-30T18:23:11.132Z,9.90
2018-03-30T18:25:38.171Z,9.80
2018-03-30T18:28:05.202Z,9.80
2018-03-30T18:30:32.233Z,9.70
2018-03-30T18:32:59.268Z,9.70
2018-03-30T18:35:27.065Z,9.60
2018-03-30T18:37:54.116Z,9.60
2018-03-30T18:40:21.181Z,9.50
2018-03-30T18:42:48.227Z,9.50
2018-03-30T18:45:15.473Z,9.50
2018-03-30T18:47:42.524Z,9.40
2018-03-30T18:50:10.355Z,9.40
2018-03-30T18:52:37.432Z,9.30
2018-03-30T18:55:04.476Z,9.30
2018-03-30T18:57:31.523Z,9.30
2018-03-30T18:59:58.594Z,9.20
2018-03-30T19:02:25.647Z,9.10
2018-03-30T19:04:52.692Z,9.20
2018-03-30T19:07:19.761Z,9.20
2018-03-30T19:09:47.451Z,9.10
2018-03-30T19:12:14.506Z,9.00
2018-03-30T19:14:41.581Z,9.00
2018-03-30T19:17:08.646Z,9.00
2018-03-30T19:19:35.715Z,8.90
2018-03-30T19:22:03.580Z,8.80
2018-03-30T19:24:30.659Z,8.80
2018-03-30T19:26:57.748Z,8.80
2018-03-30T19:29:24.817Z,8.80
2018-03-30T19:31:51.865Z,8.80
2018-03-30T19:34:18.928Z,8.70
2018-03-30T19:36:45.999Z,8.60
2018-03-30T19:39:13.076Z,8.50
2018-03-30T19:41:40.164Z,8.50
2018-03-30T19:44:07.985Z,8.50
2018-03-30T19:46:35.065Z,8.40
2018-03-30T19:49:02.159Z,8.50
2018-03-30T19:51:29.982Z,8.50
2018-03-30T19:53:58.094Z,8.40
2018-03-30T19:56:25.153Z,8.40
2018-03-30T19:58:52.247Z,8.30
2018-03-30T20:01:19.333Z,8.30
2018-03-30T20:03:46.364Z,8.30
2018-03-30T20:06:13.394Z,8.20
2018-03-30T20:08:40.496Z,8.20
2018-03-30T20:11:07.516Z,8.20
2018-03-30T20:13:34.588Z,8.20
2018-03-30T20:16:02.760Z,8.20
2018-03-30T20:18:29.859Z,8.10
2018-03-30T20:20:57.712Z,8.00
2018-03-30T20:23:24.786Z,8.00
2018-03-30T20:25:51.864Z,8.00
2018-03-30T20:28:18.948Z,8.00
2018-03-30T20:30:46.774Z,8.00
2018-03-30T20:33:13.849Z,8.00
2018-03-30T20:35:41.478Z,8.00
2018-03-30T20:38:08.549Z,8.00
2018-03-30T20:40:35.649Z,7.90
2018-03-30T20:43:02.686Z,7.80
2018-03-30T20:45:31.146Z,7.70
2018-03-30T20:47:59.042Z,7.70
2018-03-30T20:50:26.178Z,7.60
2018-03-30T20:52:53.226Z,7.60
2018-03-30T20:55:20.295Z,7.60
2018-03-30T20:57:47.360Z,7.50
2018-03-30T21:00:14.472Z,7.50
2018-03-30T21:02:41.645Z,7.50
2018-03-30T21:05:09.277Z,7.50
2018-03-30T21:07:36.335Z,7.50
2018-03-30T21:10:03.374Z,7.40
2018-03-30T21:12:30.422Z,7.50
2018-03-30T21:14:58.252Z,7.40
2018-03-30T21:17:26.404Z,7.40
2018-03-30T21:19:53.384Z,7.40
2018-03-30T21:22:20.429Z,7.40
2018-03-30T21:24:47.460Z,7.40
2018-03-30T21:27:14.501Z,7.30
2018-03-30T21:29:41.528Z,7.30
2018-03-30T21:32:08.566Z,7.20
2018-03-30T21:34:35.610Z,7.20
2018-03-30T21:37:02.645Z,7.10
2018-03-30T21:39:29.745Z,7.10
2018-03-30T21:41:57.240Z,7.00
2018-03-30T21:44:24.272Z,7.10
2018-03-30T21:46:51.305Z,7.00
2018-03-30T21:49:18.323Z,7.00
2018-03-30T21:51:45.364Z,7.00
2018-03-30T21:54:12.397Z,7.00
2018-03-30T21:56:39.478Z,7.00
2018-03-30T21:59:06.517Z,7.00
2018-03-30T22:01:35.719Z,6.90
2018-03-30T22:04:02.747Z,6.90
2018-03-30T22:06:29.782Z,6.90
2018-03-30T22:08:56.798Z,6.80
2018-03-30T22:11:23.827Z,6.80
2018-03-30T22:13:50.841Z,6.80
2018-03-30T22:16:17.874Z,6.80
2018-03-30T22:18:44.912Z,6.70
2018-03-30T22:21:12.025Z,6.60
2018-03-30T22:23:39.057Z,6.70
2018-03-30T22:26:06.090Z,6.60
2018-03-30T22:28:33.103Z,6.60
2018-03-30T22:31:01.491Z,6.60
2018-03-30T22:33:28.576Z,6.60
2018-03-30T22:35:55.610Z,6.50
2018-03-30T22:38:22.619Z,6.50
2018-03-30T22:40:49.654Z,6.50
2018-03-30T22:43:16.674Z,6.50
2018-03-30T22:45:44.445Z,6.50
2018-03-30T22:48:12.247Z,6.50
2018-03-30T22:50:39.266Z,6.40
2018-03-30T22:53:06.305Z,6.50
2018-03-30T22:55:33.320Z,6.40
2018-03-30T22:58:00.347Z,6.40
2018-03-30T23:00:27.375Z,6.30
2018-03-30T23:02:54.410Z,6.30
2018-03-30T23:05:21.435Z,6.30
2018-03-30T23:07:49.210Z,6.20
2018-03-30T23:10:16.262Z,6.20
2018-03-30T23:12:43.287Z,6.30
2018-03-30T23:15:10.310Z,6.30
2018-03-30T23:17:37.349Z,6.30
2018-03-30T23:20:05.292Z,6.30
2018-03-30T23:22:32.309Z,6.30
2018-03-30T23:24:59.337Z,6.20
2018-03-30T23:27:26.357Z,6.30
2018-03-30T23:29:53.383Z,6.30
2018-03-30T23:32:20.386Z,6.30
2018-03-30T23:34:48.199Z,6.30
2018-03-30T23:37:16.626Z,6.20
2018-03-30T23:39:43.652Z,6.20
2018-03-30T23:42:10.722Z,6.10
2018-03-30T23:44:37.764Z,6.20
2018-03-30T23:47:05.581Z,6.10
2018-03-30T23:49:32.619Z,6.10
2018-03-30T23:51:59.695Z,6.10
2018-03-30T23:54:26.719Z,6.10
2018-03-30T23:56:54.559Z,6.10
2018-03-30T23:59:21.579Z,6.10
